createdAt,value
2023-02-25T00:00:25.936Z,216.65
2023-02-25T00:01:25.895Z,215.53
2023-02-25T00:02:25.959Z,215.31
2023-02-25T00:03:25.892Z,215.02
2023-02-25T00:04:25.875Z,215.27
2023-02-25T00:05:25.834Z,216.21
2023-02-25T00:06:25.791Z,215.54
2023-02-25T00:07:25.789Z,214.06
2023-02-25T00:08:25.777Z,217.43
2023-02-25T00:09:25.767Z,217.43
2023-02-25T00:10:25.787Z,217.18
2023-02-25T00:11:25.716Z,216.04
2023-02-25T00:12:25.667Z,216.72
2023-02-25T00:13:25.656Z,216.02
2023-02-25T00:14:25.677Z,217.80
2023-02-25T00:15:25.625Z,217.28
2023-02-25T00:16:26.059Z,217.01
2023-02-25T00:17:25.553Z,216.40
2023-02-25T00:18:25.563Z,217.42
2023-02-25T00:19:25.525Z,215.97
2023-02-25T00:20:25.534Z,213.41
2023-02-25T00:21:25.475Z,215.55
2023-02-25T00:22:25.468Z,214.90
2023-02-25T00:23:25.413Z,216.17
2023-02-25T00:24:25.404Z,217.19
2023-02-25T00:25:25.395Z,217.23
2023-02-25T00:26:25.485Z,217.41
2023-02-25T00:27:25.310Z,215.82
2023-02-25T00:28:25.294Z,217.81
2023-02-25T00:29:25.271Z,216.97
2023-02-25T00:30:25.252Z,217.71
2023-02-25T00:31:25.353Z,217.98
2023-02-25T00:32:25.465Z,217.53
2023-02-25T00:33:25.190Z,215.38
2023-02-25T00:34:25.152Z,218.10
2023-02-25T00:35:25.153Z,216.55
2023-02-25T00:36:25.385Z,217.31
2023-02-25T00:37:25.089Z,215.80
2023-02-25T00:38:25.064Z,216.66
2023-02-25T00:39:25.046Z,216.34
2023-02-25T00:40:25.031Z,217.73
2023-02-25T00:41:25.016Z,218.50
2023-02-25T00:42:25.018Z,217.72
2023-02-25T00:43:24.988Z,218.80
2023-02-25T00:44:24.961Z,217.55
2023-02-25T00:45:24.986Z,217.28
2023-02-25T00:46:25.325Z,217.45
2023-02-25T00:47:24.895Z,216.43
2023-02-25T00:48:24.861Z,218.54
2023-02-25T00:49:32.138Z,218.03
2023-02-25T00:50:25.852Z,218.08
2023-02-25T00:51:24.816Z,216.86
2023-02-25T00:52:24.817Z,217.89
2023-02-25T00:53:24.776Z,217.63
2023-02-25T00:54:24.755Z,217.16
2023-02-25T00:55:24.751Z,219.05
2023-02-25T00:56:25.022Z,216.04
2023-02-25T00:57:24.709Z,219.38
2023-02-25T00:58:24.676Z,217.57
2023-02-25T00:59:24.688Z,217.25
2023-02-25T01:00:24.656Z,217.37
2023-02-25T01:01:24.646Z,217.67
2023-02-25T01:02:24.687Z,218.10
2023-02-25T01:03:24.596Z,218.87
2023-02-25T01:04:24.568Z,218.64
2023-02-25T01:05:24.556Z,219.21
2023-02-25T01:06:24.745Z,218.14
2023-02-25T01:07:24.522Z,218.86
2023-02-25T01:08:24.491Z,219.47
2023-02-25T01:09:24.470Z,218.57
2023-02-25T01:10:24.456Z,218.26
2023-02-25T01:11:24.452Z,219.68
2023-02-25T01:12:24.416Z,217.08
2023-02-25T01:13:24.370Z,216.70
2023-02-25T01:14:24.342Z,218.87
2023-02-25T01:15:24.553Z,218.14
2023-02-25T01:16:24.889Z,220.13
2023-02-25T01:17:24.295Z,216.66
2023-02-25T01:18:24.273Z,220.06
2023-02-25T01:19:24.241Z,219.13
2023-02-25T01:20:24.226Z,219.59
2023-02-25T01:21:24.203Z,219.33
2023-02-25T01:22:24.189Z,218.88
2023-02-25T01:23:24.144Z,218.60
2023-02-25T01:24:24.118Z,219.75
2023-02-25T01:25:24.089Z,218.19
2023-02-25T01:26:24.407Z,219.68
2023-02-25T01:27:24.037Z,217.77
2023-02-25T01:28:23.996Z,216.49
2023-02-25T01:29:23.988Z,216.68
2023-02-25T01:30:23.963Z,217.04
2023-02-25T01:31:24.052Z,217.39
2023-02-25T01:32:24.007Z,217.96
2023-02-25T01:33:23.893Z,218.01
2023-02-25T01:34:23.864Z,219.95
2023-02-25T01:35:23.865Z,220.21
2023-02-25T01:36:24.364Z,219.88
2023-02-25T01:37:23.794Z,220.30
2023-02-25T01:38:23.776Z,218.28
2023-02-25T01:39:25.799Z,221.44
2023-02-25T01:40:23.865Z,219.20
2023-02-25T01:41:23.857Z,222.04
2023-02-25T01:42:23.824Z,220.10
2023-02-25T01:43:23.801Z,219.85
2023-02-25T01:44:23.815Z,220.90
2023-02-25T01:45:23.772Z,219.35
2023-02-25T01:46:24.208Z,221.56
2023-02-25T01:47:23.760Z,219.79
2023-02-25T01:48:23.659Z,217.01
2023-02-25T01:49:23.673Z,220.76
2023-02-25T01:50:23.621Z,220.96
2023-02-25T01:51:23.629Z,220.44
2023-02-25T01:52:23.574Z,218.86
2023-02-25T01:53:23.585Z,218.99
2023-02-25T01:54:23.597Z,220.18
2023-02-25T01:55:23.646Z,218.05
2023-02-25T01:56:24.045Z,222.05
2023-02-25T01:57:23.666Z,218.73
2023-02-25T01:58:23.635Z,221.02
2023-02-25T01:59:23.588Z,221.65
2023-02-25T02:00:23.560Z,221.63
2023-02-25T02:01:23.546Z,219.59
2023-02-25T02:02:23.569Z,218.40
2023-02-25T02:03:23.464Z,222.02
2023-02-25T02:04:23.491Z,220.66
2023-02-25T02:05:23.513Z,220.91
2023-02-25T02:06:23.956Z,220.33
2023-02-25T02:07:23.558Z,220.45
2023-02-25T02:08:23.518Z,220.16
2023-02-25T02:09:23.484Z,219.19
2023-02-25T02:10:23.452Z,220.44
2023-02-25T02:11:23.434Z,219.97
2023-02-25T02:12:23.416Z,220.96
2023-02-25T02:13:23.416Z,221.99
2023-02-25T02:14:23.449Z,218.93
2023-02-25T02:15:23.478Z,220.43
2023-02-25T02:16:23.861Z,222.28
2023-02-25T02:17:23.501Z,219.92
2023-02-25T02:18:23.469Z,220.85
2023-02-25T02:19:23.472Z,222.31
2023-02-25T02:20:23.429Z,222.74
2023-02-25T02:21:23.401Z,221.65
2023-02-25T02:22:23.392Z,222.34
2023-02-25T02:23:23.376Z,221.47
2023-02-25T02:24:23.389Z,222.83
2023-02-25T02:25:23.423Z,221.95
2023-02-25T02:26:23.869Z,222.08
2023-02-25T02:27:23.445Z,222.16
2023-02-25T02:28:23.383Z,222.15
2023-02-25T02:29:23.362Z,221.31
2023-02-25T02:30:23.338Z,219.52
2023-02-25T02:31:23.364Z,223.52
2023-02-25T02:32:23.537Z,222.65
2023-02-25T02:33:23.250Z,220.54
2023-02-25T02:34:23.233Z,221.46
2023-02-25T02:35:23.215Z,221.22
2023-02-25T02:36:23.523Z,220.95
2023-02-25T02:37:23.154Z,220.77
2023-02-25T02:38:23.121Z,222.46
2023-02-25T02:39:23.087Z,221.63
2023-02-25T02:40:23.070Z,220.99
2023-02-25T02:41:23.031Z,216.38
2023-02-25T02:42:23.031Z,214.64
2023-02-25T02:43:22.970Z,199.57
2023-02-25T02:44:22.965Z,183.49
2023-02-25T02:45:23.049Z,172.71
2023-02-25T02:46:23.243Z,166.43
2023-02-25T02:47:22.889Z,158.50
2023-02-25T02:48:22.859Z,151.28
2023-02-25T02:49:22.898Z,146.32
2023-02-25T02:50:22.824Z,139.60
2023-02-25T02:51:22.811Z,130.12
2023-02-25T02:52:22.780Z,121.23
2023-02-25T02:53:22.742Z,115.77
2023-02-25T02:54:22.741Z,109.06
2023-02-25T02:55:22.712Z,103.49
2023-02-25T02:56:23.083Z,100.44
2023-02-25T02:57:22.674Z,95.25
2023-02-25T02:58:22.671Z,89.42
2023-02-25T02:59:22.734Z,85.16
2023-02-25T03:00:22.603Z,80.83
2023-02-25T03:01:22.645Z,80.39
2023-02-25T03:02:22.607Z,75.68
2023-02-25T03:03:22.539Z,73.69
2023-02-25T03:04:22.649Z,70.87
2023-02-25T03:05:22.501Z,69.62
2023-02-25T03:06:22.880Z,65.13
2023-02-25T03:07:22.465Z,63.42
2023-02-25T03:08:22.435Z,60.40
2023-02-25T03:09:22.431Z,62.00
2023-02-25T03:10:22.385Z,63.46
2023-02-25T03:11:22.366Z,61.31
2023-02-25T03:12:22.356Z,59.00
2023-02-25T03:13:22.367Z,55.87
2023-02-25T03:14:22.319Z,54.13
2023-02-25T03:15:22.280Z,51.71
2023-02-25T03:16:22.591Z,50.34
2023-02-25T03:17:22.263Z,48.16
2023-02-25T03:18:22.268Z,47.59
2023-02-25T03:19:22.224Z,45.33
2023-02-25T03:20:22.201Z,45.78
2023-02-25T03:21:22.195Z,45.05
2023-02-25T03:22:22.226Z,43.26
2023-02-25T03:23:22.171Z,44.63
2023-02-25T03:24:22.138Z,40.87
2023-02-25T03:25:22.124Z,40.91
2023-02-25T03:26:22.365Z,41.21
2023-02-25T03:27:22.106Z,42.14
2023-02-25T03:28:22.084Z,41.99
2023-02-25T03:29:22.058Z,38.88
2023-02-25T03:30:22.050Z,38.25
2023-02-25T03:31:22.060Z,35.45
2023-02-25T03:32:22.104Z,33.06
2023-02-25T03:33:22.052Z,32.68
2023-02-25T03:34:22.013Z,34.23
2023-02-25T03:35:22.004Z,31.27
2023-02-25T03:36:22.341Z,30.28
2023-02-25T03:37:21.995Z,29.51
2023-02-25T03:38:21.960Z,29.18
2023-02-25T03:39:21.953Z,29.10
2023-02-25T03:40:21.920Z,30.35
2023-02-25T03:41:21.936Z,29.07
2023-02-25T03:42:21.927Z,28.47
2023-02-25T03:43:21.921Z,28.36
2023-02-25T03:44:21.905Z,27.13
2023-02-25T03:45:21.868Z,27.02
2023-02-25T03:46:22.377Z,28.57
2023-02-25T03:47:21.841Z,27.45
2023-02-25T03:48:21.846Z,27.18
2023-02-25T03:49:21.850Z,27.49
2023-02-25T03:50:21.813Z,28.83
2023-02-25T03:51:21.785Z,27.39
2023-02-25T03:52:21.791Z,26.76
2023-02-25T03:53:21.778Z,26.67
2023-02-25T03:54:21.727Z,28.08
2023-02-25T03:55:21.710Z,29.13
2023-02-25T03:56:22.079Z,29.43
2023-02-25T03:57:21.683Z,29.83
2023-02-25T03:58:21.728Z,27.62
2023-02-25T03:59:21.675Z,27.59
2023-02-25T04:00:21.649Z,27.38
2023-02-25T04:01:21.662Z,30.47
2023-02-25T04:02:21.657Z,30.95
2023-02-25T04:03:21.641Z,29.88
2023-02-25T04:04:21.662Z,30.17
2023-02-25T04:05:21.601Z,27.87
2023-02-25T04:06:21.867Z,29.64
2023-02-25T04:07:21.570Z,28.58
2023-02-25T04:08:21.576Z,30.60
2023-02-25T04:09:21.586Z,27.18
2023-02-25T04:10:21.546Z,26.63
2023-02-25T04:11:21.511Z,25.47
2023-02-25T04:12:21.506Z,25.37
2023-02-25T04:13:21.506Z,27.88
2023-02-25T04:14:21.497Z,25.78
2023-02-25T04:15:21.481Z,26.50
2023-02-25T04:16:21.794Z,26.38
2023-02-25T04:17:21.451Z,25.54
2023-02-25T04:18:21.433Z,25.81
2023-02-25T04:19:21.443Z,27.14
2023-02-25T04:20:21.397Z,27.67
2023-02-25T04:21:21.395Z,27.53
2023-02-25T04:22:21.424Z,26.96
2023-02-25T04:23:21.410Z,26.83
2023-02-25T04:24:21.387Z,28.14
2023-02-25T04:25:21.377Z,28.56
2023-02-25T04:26:21.550Z,30.68
2023-02-25T04:27:21.350Z,31.52
2023-02-25T04:28:21.307Z,29.86
2023-02-25T04:29:21.332Z,28.76
2023-02-25T04:30:21.335Z,28.12
2023-02-25T04:31:21.437Z,25.54
2023-02-25T04:32:21.388Z,27.47
2023-02-25T04:33:21.314Z,28.02
2023-02-25T04:34:21.282Z,28.46
2023-02-25T04:35:21.279Z,26.72
2023-02-25T04:36:21.492Z,27.54
2023-02-25T04:37:21.248Z,28.74
2023-02-25T04:38:21.215Z,28.10
2023-02-25T04:39:21.195Z,28.51
2023-02-25T04:40:21.173Z,27.80
2023-02-25T04:41:21.140Z,28.03
2023-02-25T04:42:21.148Z,25.92
2023-02-25T04:43:21.120Z,32.75
2023-02-25T04:44:21.158Z,31.10
2023-02-25T04:45:21.066Z,27.73
2023-02-25T04:46:21.572Z,27.16
2023-02-25T04:47:21.033Z,27.16
2023-02-25T04:48:21.033Z,27.51
2023-02-25T04:49:20.998Z,28.48
2023-02-25T04:50:21.032Z,29.15
2023-02-25T04:51:20.959Z,33.33
2023-02-25T04:52:20.946Z,32.73
2023-02-25T04:53:20.938Z,33.57
2023-02-25T04:54:20.910Z,30.58
2023-02-25T04:55:20.915Z,29.54
2023-02-25T04:56:21.010Z,29.50
2023-02-25T04:57:20.858Z,28.32
2023-02-25T04:58:20.871Z,31.94
2023-02-25T04:59:20.851Z,31.67
2023-02-25T05:00:20.828Z,31.97
2023-02-25T05:01:20.865Z,32.60
2023-02-25T05:02:20.813Z,29.77
2023-02-25T05:03:20.819Z,28.16
2023-02-25T05:04:20.774Z,25.47
2023-02-25T05:05:20.764Z,25.16
2023-02-25T05:06:20.866Z,27.18
2023-02-25T05:07:20.734Z,27.31
2023-02-25T05:08:20.715Z,27.55
2023-02-25T05:09:20.693Z,26.46
2023-02-25T05:10:20.699Z,28.50
2023-02-25T05:11:20.670Z,28.72
2023-02-25T05:12:20.657Z,25.00
2023-02-25T05:13:20.631Z,26.44
2023-02-25T05:14:20.632Z,30.12
2023-02-25T05:15:20.603Z,25.83
2023-02-25T05:16:20.689Z,29.77
2023-02-25T05:17:20.565Z,27.02
2023-02-25T05:18:20.613Z,27.98
2023-02-25T05:19:20.554Z,31.35
2023-02-25T05:20:20.583Z,28.33
2023-02-25T05:21:20.528Z,29.78
2023-02-25T05:22:20.526Z,29.42
2023-02-25T05:23:20.526Z,31.12
2023-02-25T05:24:20.516Z,31.70
2023-02-25T05:25:20.494Z,34.84
2023-02-25T05:26:20.758Z,33.95
2023-02-25T05:27:20.460Z,32.91
2023-02-25T05:28:20.439Z,35.43
2023-02-25T05:29:20.436Z,33.81
2023-02-25T05:30:20.429Z,35.53
2023-02-25T05:31:20.529Z,36.93
2023-02-25T05:32:20.553Z,37.19
2023-02-25T05:33:20.379Z,39.86
2023-02-25T05:34:20.379Z,42.29
2023-02-25T05:35:20.390Z,42.04
2023-02-25T05:36:20.426Z,43.32
2023-02-25T05:37:20.318Z,41.63
2023-02-25T05:38:20.308Z,43.47
2023-02-25T05:39:20.276Z,45.11
2023-02-25T05:40:20.284Z,46.07
2023-02-25T05:41:20.277Z,46.71
2023-02-25T05:42:20.250Z,46.37
2023-02-25T05:43:20.266Z,45.11
2023-02-25T05:44:20.232Z,47.16
2023-02-25T05:45:20.232Z,47.81
2023-02-25T05:46:20.298Z,47.91
2023-02-25T05:47:20.193Z,51.29
2023-02-25T05:48:20.194Z,51.26
2023-02-25T05:49:20.192Z,54.64
2023-02-25T05:50:20.186Z,58.20
2023-02-25T05:51:20.142Z,59.70
2023-02-25T05:52:20.152Z,61.24
2023-02-25T05:53:20.114Z,65.41
2023-02-25T05:54:20.112Z,64.96
2023-02-25T05:55:20.118Z,66.65
2023-02-25T05:56:20.073Z,67.92
2023-02-25T05:57:20.082Z,68.76
2023-02-25T05:58:20.056Z,67.87
2023-02-25T05:59:20.042Z,67.84
2023-02-25T06:00:20.013Z,70.54
2023-02-25T06:01:20.020Z,69.85
2023-02-25T06:02:20.074Z,68.94
2023-02-25T06:03:20.035Z,69.46
2023-02-25T06:04:19.959Z,72.11
2023-02-25T06:05:19.951Z,71.15
2023-02-25T06:06:19.954Z,70.77
2023-02-25T06:07:19.925Z,70.89
2023-02-25T06:08:19.939Z,69.73
2023-02-25T06:09:19.904Z,70.55
2023-02-25T06:10:19.896Z,70.48
2023-02-25T06:11:19.906Z,69.64
2023-02-25T06:12:19.869Z,72.66
2023-02-25T06:13:19.858Z,74.39
2023-02-25T06:14:19.884Z,78.67
2023-02-25T06:15:19.844Z,80.49
2023-02-25T06:16:19.895Z,80.67
2023-02-25T06:17:19.806Z,80.16
2023-02-25T06:18:19.785Z,79.64
2023-02-25T06:19:19.782Z,79.88
2023-02-25T06:20:19.776Z,83.10
2023-02-25T06:21:19.808Z,85.27
2023-02-25T06:22:19.769Z,86.38
2023-02-25T06:23:19.745Z,88.16
2023-02-25T06:24:19.736Z,91.84
2023-02-25T06:25:19.731Z,91.42
2023-02-25T06:26:19.726Z,92.71
2023-02-25T06:27:19.673Z,94.67
2023-02-25T06:28:19.656Z,94.26
2023-02-25T06:29:19.673Z,95.81
2023-02-25T06:30:19.635Z,95.21
2023-02-25T06:31:19.722Z,93.70
2023-02-25T06:32:19.767Z,93.41
2023-02-25T06:33:19.560Z,96.07
2023-02-25T06:34:19.543Z,95.12
2023-02-25T06:35:19.539Z,94.77
2023-02-25T06:36:19.531Z,94.53
2023-02-25T06:37:19.502Z,90.39
2023-02-25T06:38:19.468Z,85.03
2023-02-25T06:39:19.491Z,85.55
2023-02-25T06:40:19.448Z,82.46
2023-02-25T06:41:19.454Z,79.70
2023-02-25T06:42:19.442Z,74.51
2023-02-25T06:43:19.436Z,71.78
2023-02-25T06:44:19.395Z,73.28
2023-02-25T06:45:19.368Z,73.39
2023-02-25T06:46:19.407Z,70.35
2023-02-25T06:47:19.346Z,65.72
2023-02-25T06:48:19.326Z,66.90
2023-02-25T06:49:19.319Z,68.25
2023-02-25T06:50:19.337Z,67.90
2023-02-25T06:51:19.286Z,67.94
2023-02-25T06:52:19.290Z,68.06
2023-02-25T06:53:19.254Z,67.66
2023-02-25T06:54:19.237Z,66.04
2023-02-25T06:55:19.217Z,66.96
2023-02-25T06:56:19.208Z,62.99
2023-02-25T06:57:19.187Z,56.76
2023-02-25T06:58:19.151Z,57.70
2023-02-25T06:59:19.161Z,56.17
2023-02-25T07:00:19.111Z,55.24
2023-02-25T07:01:19.172Z,55.07
2023-02-25T07:02:19.104Z,55.05
2023-02-25T07:03:19.089Z,52.16
2023-02-25T07:04:19.081Z,54.59
2023-02-25T07:05:19.041Z,53.87
2023-02-25T07:06:19.019Z,51.92
2023-02-25T07:07:19.037Z,53.17
2023-02-25T07:08:18.992Z,52.91
2023-02-25T07:09:18.968Z,54.02
2023-02-25T07:10:18.962Z,53.98
2023-02-25T07:11:18.926Z,48.33
2023-02-25T07:12:18.918Z,49.73
2023-02-25T07:13:18.886Z,49.03
2023-02-25T07:14:18.869Z,48.97
2023-02-25T07:15:18.841Z,47.19
2023-02-25T07:16:18.994Z,47.71
2023-02-25T07:17:18.813Z,48.29
2023-02-25T07:18:18.800Z,46.30
2023-02-25T07:19:18.767Z,46.67
2023-02-25T07:20:18.760Z,47.01
2023-02-25T07:21:18.758Z,45.49
2023-02-25T07:22:18.746Z,44.88
2023-02-25T07:23:18.720Z,45.40
2023-02-25T07:24:18.704Z,42.23
2023-02-25T07:25:18.745Z,39.56
2023-02-25T07:26:18.671Z,40.22
2023-02-25T07:27:18.674Z,41.55
2023-02-25T07:28:18.626Z,39.52
2023-02-25T07:29:18.614Z,39.72
2023-02-25T07:30:18.586Z,41.14
2023-02-25T07:31:18.781Z,40.12
2023-02-25T07:32:18.820Z,38.83
2023-02-25T07:33:18.562Z,38.01
2023-02-25T07:34:18.529Z,38.11
2023-02-25T07:35:18.533Z,40.09
2023-02-25T07:36:18.496Z,38.88
2023-02-25T07:37:18.474Z,38.45
2023-02-25T07:38:18.473Z,42.44
2023-02-25T07:39:18.460Z,44.14
2023-02-25T07:40:18.438Z,44.75
2023-02-25T07:41:18.442Z,45.09
2023-02-25T07:42:18.404Z,44.85
2023-02-25T07:43:18.429Z,42.46
2023-02-25T07:44:18.401Z,42.70
2023-02-25T07:45:18.378Z,41.80
2023-02-25T07:46:18.412Z,40.21
2023-02-25T07:47:18.350Z,37.87
2023-02-25T07:48:18.385Z,37.91
2023-02-25T07:49:18.316Z,36.82
2023-02-25T07:50:18.323Z,37.56
2023-02-25T07:51:18.312Z,39.57
2023-02-25T07:52:18.281Z,41.84
2023-02-25T07:53:18.281Z,46.16
2023-02-25T07:54:18.256Z,50.96
2023-02-25T07:55:18.254Z,54.02
2023-02-25T07:56:18.236Z,59.11
2023-02-25T07:57:18.209Z,62.83
2023-02-25T07:58:18.249Z,65.67
2023-02-25T07:59:18.222Z,68.57
2023-02-25T08:00:18.193Z,69.89
2023-02-25T08:01:18.202Z,70.83
2023-02-25T08:02:18.159Z,74.02
2023-02-25T08:03:18.165Z,77.27
2023-02-25T08:04:18.190Z,79.39
2023-02-25T08:05:18.121Z,82.53
2023-02-25T08:06:18.127Z,84.20
2023-02-25T08:07:18.098Z,86.44
2023-02-25T08:08:18.148Z,86.67
2023-02-25T08:09:18.105Z,85.70
2023-02-25T08:10:18.091Z,86.53
2023-02-25T08:11:18.086Z,88.25
2023-02-25T08:12:18.062Z,88.61
2023-02-25T08:13:18.087Z,90.29
2023-02-25T08:14:18.058Z,91.73
2023-02-25T08:15:18.068Z,93.09
2023-02-25T08:16:18.144Z,95.15
2023-02-25T08:17:18.024Z,97.12
2023-02-25T08:18:18.067Z,97.17
2023-02-25T08:19:18.014Z,97.39
2023-02-25T08:20:18.012Z,99.18
2023-02-25T08:21:18.095Z,99.62
2023-02-25T08:22:17.991Z,102.01
2023-02-25T08:23:17.992Z,101.00
2023-02-25T08:24:17.953Z,102.94
2023-02-25T08:25:17.960Z,104.01
2023-02-25T08:26:17.959Z,104.05
2023-02-25T08:27:17.933Z,104.35
2023-02-25T08:28:17.913Z,104.07
2023-02-25T08:29:17.922Z,103.72
2023-02-25T08:30:17.890Z,104.32
2023-02-25T08:31:18.005Z,104.07
2023-02-25T08:32:17.968Z,102.99
2023-02-25T08:33:17.831Z,103.14
2023-02-25T08:34:17.832Z,101.98
2023-02-25T08:35:17.814Z,101.98
2023-02-25T08:36:17.818Z,100.47
2023-02-25T08:37:17.766Z,101.23
2023-02-25T08:38:17.770Z,99.60
2023-02-25T08:39:17.739Z,97.40
2023-02-25T08:40:19.877Z,96.39
2023-02-25T08:41:17.708Z,97.27
2023-02-25T08:42:17.683Z,101.23
2023-02-25T08:43:17.676Z,105.08
2023-02-25T08:44:17.679Z,111.24
2023-02-25T08:45:17.654Z,118.35
2023-02-25T08:46:19.933Z,123.23
2023-02-25T08:47:17.610Z,127.86
2023-02-25T08:48:17.612Z,132.41
2023-02-25T08:49:17.593Z,134.20
2023-02-25T08:50:17.581Z,137.57
2023-02-25T08:51:17.544Z,144.81
2023-02-25T08:52:17.518Z,149.34
2023-02-25T08:53:17.512Z,153.71
2023-02-25T08:54:17.515Z,156.82
2023-02-25T08:55:17.484Z,157.12
2023-02-25T08:56:17.481Z,160.64
2023-02-25T08:57:17.464Z,163.37
2023-02-25T08:58:17.448Z,163.07
2023-02-25T08:59:17.466Z,167.82
2023-02-25T09:00:17.435Z,168.37
2023-02-25T09:01:17.465Z,168.46
2023-02-25T09:02:17.386Z,171.82
2023-02-25T09:03:17.399Z,172.52
2023-02-25T09:04:17.441Z,174.22
2023-02-25T09:05:19.599Z,176.74
2023-02-25T09:06:17.323Z,176.97
2023-02-25T09:07:17.344Z,177.73
2023-02-25T09:08:17.294Z,178.92
2023-02-25T09:09:17.312Z,183.00
2023-02-25T09:10:17.255Z,188.09
2023-02-25T09:11:17.272Z,189.26
2023-02-25T09:12:17.214Z,191.98
2023-02-25T09:13:17.225Z,194.62
2023-02-25T09:14:17.228Z,195.44
2023-02-25T09:15:17.162Z,198.55
2023-02-25T09:16:19.861Z,199.63
2023-02-25T09:17:17.132Z,199.75
2023-02-25T09:18:17.112Z,200.27
2023-02-25T09:19:17.109Z,201.49
2023-02-25T09:20:17.108Z,203.35
2023-02-25T09:21:17.076Z,208.90
2023-02-25T09:22:17.066Z,210.45
2023-02-25T09:23:17.035Z,210.49
2023-02-25T09:24:17.005Z,212.22
2023-02-25T09:25:17.004Z,213.63
2023-02-25T09:26:16.987Z,215.12
2023-02-25T09:27:16.950Z,216.16
2023-02-25T09:28:16.924Z,217.36
2023-02-25T09:29:16.911Z,219.35
2023-02-25T09:30:16.921Z,218.79
2023-02-25T09:31:17.019Z,221.14
2023-02-25T09:32:16.972Z,220.18
2023-02-25T09:33:16.845Z,223.52
2023-02-25T09:34:16.849Z,222.61
2023-02-25T09:35:16.845Z,224.97
2023-02-25T09:36:16.797Z,224.64
2023-02-25T09:37:16.763Z,226.72
2023-02-25T09:38:16.772Z,228.19
2023-02-25T09:39:16.734Z,226.69
2023-02-25T09:40:16.720Z,227.54
2023-02-25T09:41:16.689Z,229.05
2023-02-25T09:42:16.666Z,229.62
2023-02-25T09:43:16.643Z,230.99
2023-02-25T09:44:16.638Z,232.62
2023-02-25T09:45:16.630Z,232.49
2023-02-25T09:46:16.651Z,234.49
2023-02-25T09:47:16.612Z,234.41
2023-02-25T09:48:16.567Z,234.82
2023-02-25T09:49:16.545Z,235.39
2023-02-25T09:50:16.539Z,236.43
2023-02-25T09:51:16.492Z,237.09
2023-02-25T09:52:16.474Z,238.36
2023-02-25T09:53:16.457Z,237.46
2023-02-25T09:54:16.424Z,238.26
2023-02-25T09:55:16.419Z,237.11
2023-02-25T09:56:16.381Z,239.49
2023-02-25T09:57:16.369Z,239.36
2023-02-25T09:58:16.358Z,241.03
2023-02-25T09:59:16.343Z,241.69
2023-02-25T10:00:16.333Z,241.32
2023-02-25T10:01:16.297Z,242.81
2023-02-25T10:02:16.425Z,242.56
2023-02-25T10:03:16.335Z,242.68
2023-02-25T10:04:16.217Z,242.95
2023-02-25T10:05:16.239Z,244.82
2023-02-25T10:06:16.193Z,243.69
2023-02-25T10:07:16.191Z,245.93
2023-02-25T10:08:16.151Z,245.14
2023-02-25T10:09:16.149Z,245.21
2023-02-25T10:10:16.127Z,247.36
2023-02-25T10:11:16.144Z,245.56
2023-02-25T10:12:16.091Z,245.27
2023-02-25T10:13:16.111Z,247.80
2023-02-25T10:14:16.050Z,246.17
2023-02-25T10:15:16.044Z,248.25
2023-02-25T10:16:16.086Z,248.26
2023-02-25T10:17:15.990Z,249.51
2023-02-25T10:18:15.960Z,249.97
2023-02-25T10:19:15.962Z,250.22
2023-02-25T10:20:15.920Z,249.36
2023-02-25T10:21:15.927Z,250.00
2023-02-25T10:22:15.885Z,248.69
2023-02-25T10:23:15.845Z,249.42
2023-02-25T10:24:15.830Z,247.94
2023-02-25T10:25:15.809Z,248.98
2023-02-25T10:26:15.804Z,248.50
2023-02-25T10:27:15.783Z,249.18
2023-02-25T10:29:15.748Z,248.42
2023-02-25T11:56:13.695Z,245.72
2023-02-25T11:57:13.709Z,245.45
2023-02-25T11:58:13.677Z,247.21
2023-02-25T11:59:13.635Z,247.35
2023-02-25T12:00:13.628Z,249.11
2023-02-25T12:01:13.592Z,245.85
2023-02-25T12:02:13.600Z,246.47
2023-02-25T12:03:13.535Z,244.25
2023-02-25T12:04:13.524Z,247.16
2023-02-25T12:05:13.505Z,246.13
2023-02-25T12:06:13.488Z,245.68
2023-02-25T12:07:13.500Z,244.82
2023-02-25T12:08:14.377Z,246.13
2023-02-25T12:09:13.443Z,245.99
2023-02-25T12:10:13.401Z,245.65
2023-02-25T12:11:13.394Z,244.17
2023-02-25T12:12:13.414Z,243.97
2023-02-25T12:13:13.352Z,246.90
2023-02-25T12:14:13.324Z,242.36
2023-02-25T12:15:13.322Z,246.78
2023-02-25T12:16:13.339Z,244.04
2023-02-25T12:17:13.273Z,244.16
2023-02-25T12:18:13.249Z,244.85
2023-02-25T12:19:13.238Z,245.42
2023-02-25T12:20:13.232Z,246.15
2023-02-25T12:21:13.192Z,244.86
2023-02-25T12:22:13.208Z,244.98
2023-02-25T12:23:13.172Z,246.54
2023-02-25T12:24:13.151Z,246.20
2023-02-25T12:25:13.112Z,248.26
2023-02-25T12:26:13.129Z,243.43
2023-02-25T12:27:13.085Z,247.41
2023-02-25T12:28:13.054Z,250.00
2023-02-25T12:29:13.047Z,245.03
2023-02-25T12:30:13.015Z,247.63
2023-02-25T12:31:13.058Z,245.73
2023-02-25T12:32:13.019Z,243.81
2023-02-25T12:33:12.965Z,248.25
2023-02-25T12:34:12.946Z,247.07
2023-02-25T12:35:12.904Z,242.90
2023-02-25T12:36:12.894Z,243.12
2023-02-25T12:37:12.851Z,243.27
2023-02-25T12:38:12.847Z,242.76
2023-02-25T12:39:12.812Z,243.59
2023-02-25T12:40:12.771Z,245.18
2023-02-25T12:41:12.760Z,243.67
2023-02-25T12:42:12.720Z,241.03
2023-02-25T12:43:12.729Z,246.62
2023-02-25T12:44:12.692Z,244.12
2023-02-25T12:45:12.647Z,242.84
2023-02-25T12:46:12.660Z,242.28
2023-02-25T12:47:12.591Z,244.39
2023-02-25T12:48:12.574Z,241.67
2023-02-25T12:49:12.537Z,250.00
2023-02-25T12:50:12.523Z,242.52
2023-02-25T12:51:12.503Z,241.39
2023-02-25T12:52:12.472Z,242.72
2023-02-25T12:53:12.477Z,245.92
2023-02-25T12:54:12.424Z,242.06
2023-02-25T12:55:12.385Z,243.79
2023-02-25T12:56:12.359Z,242.51
2023-02-25T12:57:12.335Z,242.39
2023-02-25T12:58:12.321Z,245.58
2023-02-25T12:59:12.278Z,246.88
2023-02-25T13:00:12.250Z,241.32
2023-02-25T13:01:12.260Z,239.83
2023-02-25T13:02:12.167Z,243.02
2023-02-25T13:03:12.158Z,241.13
2023-02-25T13:04:12.185Z,244.21
2023-02-25T13:05:12.078Z,243.27
2023-02-25T13:06:12.044Z,241.00
2023-02-25T13:07:12.025Z,243.77
2023-02-25T13:08:12.020Z,245.52
2023-02-25T13:09:11.977Z,242.02
2023-02-25T13:10:11.916Z,242.61
2023-02-25T13:11:11.871Z,240.05
2023-02-25T13:12:12.614Z,242.93
2023-02-25T13:13:11.824Z,245.89
2023-02-25T13:14:11.791Z,242.58
2023-02-25T13:15:11.732Z,239.30
2023-02-25T13:16:11.727Z,240.19
2023-02-25T13:17:11.671Z,242.22
2023-02-25T13:18:11.671Z,244.39
2023-02-25T13:19:11.627Z,243.01
2023-02-25T13:20:11.604Z,244.54
2023-02-25T13:21:12.054Z,245.76
2023-02-25T13:22:11.536Z,241.23
2023-02-25T13:23:11.496Z,243.78
2023-02-25T13:24:11.506Z,245.25
2023-02-25T13:25:11.426Z,244.26
2023-02-25T13:26:11.419Z,242.71
2023-02-25T13:27:11.390Z,241.30
2023-02-25T13:28:11.348Z,244.67
2023-02-25T13:29:11.360Z,242.92
2023-02-25T13:30:11.429Z,238.93
2023-02-25T13:31:11.285Z,244.25
2023-02-25T13:32:11.377Z,246.33
2023-02-25T13:33:11.251Z,243.76
2023-02-25T13:34:11.259Z,242.73
2023-02-25T13:35:11.190Z,240.95
2023-02-25T13:36:11.184Z,241.69
2023-02-25T13:37:11.146Z,246.15
2023-02-25T13:38:11.106Z,244.40
2023-02-25T13:39:11.113Z,242.89
2023-02-25T13:40:11.155Z,242.22
2023-02-25T13:41:11.064Z,237.28
2023-02-25T13:42:11.045Z,242.84
2023-02-25T13:43:11.027Z,242.61
2023-02-25T13:44:11.041Z,240.56
2023-02-25T13:45:10.971Z,242.11
2023-02-25T13:46:11.008Z,243.03
2023-02-25T13:47:10.948Z,245.56
2023-02-25T13:48:10.925Z,239.63
2023-02-25T13:49:10.946Z,244.21
2023-02-25T13:50:10.869Z,245.48
2023-02-25T13:51:10.869Z,239.81
2023-02-25T13:52:10.830Z,241.00
2023-02-25T13:53:10.981Z,241.38
2023-02-25T13:54:10.790Z,242.66
2023-02-25T13:55:10.757Z,243.92
2023-02-25T13:56:10.750Z,240.52
2023-02-25T13:57:10.729Z,242.59
2023-02-25T13:58:10.689Z,240.40
2023-02-25T13:59:10.655Z,240.01
2023-02-25T14:00:10.619Z,243.01
2023-02-25T14:01:10.621Z,240.23
2023-02-25T14:02:10.627Z,246.08
2023-02-25T14:03:10.570Z,241.42
2023-02-25T14:04:10.538Z,239.46
2023-02-25T14:05:10.542Z,238.87